Ronda, Spain
Current Conditions -  °F | °C
As of 12:00 PM on Sunday 23 Nov 2014 (Local Time) from LEMG Reporting Station
Clear Clear  
Wind Chill: 68°   Ceiling: Unl
Heat Index: 68°   Visibility: 5mi
Dew Point: 57°   Wind: 2mph
Humidity: 68%   Direction: NA
Pressure: 29.85"   Gusts: NA
Location:  36.74°N, 5.17°W
Report Text: LEMG 231100Z VRB02KT 8000 NSC 20/14 Q1011 NOSIG
Loading
Personal Weather Stations






























Interactive Weather Map New forecast layout! Learn more

10-Day Weather Forecast

Advertisements
Track Severe Weather on mobile